sensor_id;sensor_type;location;lat;lon;timestamp;temperature;humidity
68177;DHT22;56478;50.982;7.032;2022-11-15T00:00:49;11.08;84.67
68177;DHT22;56478;50.982;7.032;2022-11-15T00:03:16;11.04;84.75
68177;DHT22;56478;50.982;7.032;2022-11-15T00:05:42;11.07;84.86
68177;DHT22;56478;50.982;7.032;2022-11-15T00:08:07;11.09;84.90
68177;DHT22;56478;50.982;7.032;2022-11-15T00:10:33;11.14;84.88
68177;DHT22;56478;50.982;7.032;2022-11-15T00:12:59;11.16;84.90
68177;DHT22;56478;50.982;7.032;2022-11-15T00:15:24;11.18;84.88
68177;DHT22;56478;50.982;7.032;2022-11-15T00:17:50;11.19;84.90
68177;DHT22;56478;50.982;7.032;2022-11-15T00:20:17;11.20;84.93
68177;DHT22;56478;50.982;7.032;2022-11-15T00:22:42;11.26;84.84
68177;DHT22;56478;50.982;7.032;2022-11-15T00:25:08;11.26;84.94
68177;DHT22;56478;50.982;7.032;2022-11-15T00:27:33;11.29;84.91
68177;DHT22;56478;50.982;7.032;2022-11-15T00:30:00;11.39;84.62
68177;DHT22;56478;50.982;7.032;2022-11-15T00:32:25;11.42;84.58
68177;DHT22;56478;50.982;7.032;2022-11-15T00:34:51;11.50;84.38
68177;DHT22;56478;50.982;7.032;2022-11-15T00:37:16;11.46;84.50
68177;DHT22;56478;50.982;7.032;2022-11-15T00:39:42;11.54;84.27
68177;DHT22;56478;50.982;7.032;2022-11-15T00:42:07;11.57;84.34
68177;DHT22;56478;50.982;7.032;2022-11-15T00:44:33;11.63;84.17
68177;DHT22;56478;50.982;7.032;2022-11-15T00:46:58;11.66;84.10
68177;DHT22;56478;50.982;7.032;2022-11-15T00:49:24;11.67;84.08
68177;DHT22;56478;50.982;7.032;2022-11-15T00:51:49;11.71;84.14
68177;DHT22;56478;50.982;7.032;2022-11-15T00:54:14;11.78;84.02
68177;DHT22;56478;50.982;7.032;2022-11-15T00:56:40;11.77;83.96
68177;DHT22;56478;50.982;7.032;2022-11-15T00:59:05;11.81;83.97
68177;DHT22;56478;50.982;7.032;2022-11-15T01:01:31;11.74;84.13
68177;DHT22;56478;50.982;7.032;2022-11-15T01:03:57;11.81;84.10
68177;DHT22;56478;50.982;7.032;2022-11-15T01:06:22;11.82;84.04
68177;DHT22;56478;50.982;7.032;2022-11-15T01:08:48;11.88;83.86
68177;DHT22;56478;50.982;7.032;2022-11-15T01:11:13;11.91;83.84
68177;DHT22;56478;50.982;7.032;2022-11-15T01:13:39;11.95;83.78
68177;DHT22;56478;50.982;7.032;2022-11-15T01:16:16;11.88;83.93
68177;DHT22;56478;50.982;7.032;2022-11-15T01:18:45;11.94;83.86
68177;DHT22;56478;50.982;7.032;2022-11-15T01:21:16;12.01;83.69
68177;DHT22;56478;50.982;7.032;2022-11-15T01:23:42;12.01;83.73
68177;DHT22;56478;50.982;7.032;2022-11-15T01:26:11;11.95;84.12
68177;DHT22;56478;50.982;7.032;2022-11-15T01:28:39;11.97;84.15
68177;DHT22;56478;50.982;7.032;2022-11-15T01:31:09;11.98;84.06
68177;DHT22;56478;50.982;7.032;2022-11-15T01:33:36;12.04;83.94
68177;DHT22;56478;50.982;7.032;2022-11-15T01:36:06;11.99;84.15
68177;DHT22;56478;50.982;7.032;2022-11-15T01:38:33;11.99;84.10
68177;DHT22;56478;50.982;7.032;2022-11-15T01:40:58;12.06;83.94
68177;DHT22;56478;50.982;7.032;2022-11-15T01:43:26;12.09;83.88
68177;DHT22;56478;50.982;7.032;2022-11-15T01:45:56;12.15;83.72
68177;DHT22;56478;50.982;7.032;2022-11-15T01:48:26;12.16;83.69
68177;DHT22;56478;50.982;7.032;2022-11-15T01:50:54;12.18;83.76
68177;DHT22;56478;50.982;7.032;2022-11-15T01:53:21;12.19;83.68
68177;DHT22;56478;50.982;7.032;2022-11-15T01:55:49;12.26;83.50
68177;DHT22;56478;50.982;7.032;2022-11-15T01:58:14;12.26;83.61
68177;DHT22;56478;50.982;7.032;2022-11-15T02:00:40;12.25;83.61
68177;DHT22;56478;50.982;7.032;2022-11-15T02:03:06;12.25;83.62
68177;DHT22;56478;50.982;7.032;2022-11-15T02:05:32;12.28;83.58
68177;DHT22;56478;50.982;7.032;2022-11-15T02:07:59;12.28;83.56
68177;DHT22;56478;50.982;7.032;2022-11-15T02:10:25;12.30;83.50
68177;DHT22;56478;50.982;7.032;2022-11-15T02:12:51;12.29;83.60
68177;DHT22;56478;50.982;7.032;2022-11-15T02:15:17;12.33;83.57
68177;DHT22;56478;50.982;7.032;2022-11-15T02:26:58;12.34;83.71
68177;DHT22;56478;50.982;7.032;2022-11-15T02:32:19;12.37;83.69
68177;DHT22;56478;50.982;7.032;2022-11-15T02:34:56;12.37;83.72
68177;DHT22;56478;50.982;7.032;2022-11-15T02:37:46;12.39;83.72
68177;DHT22;56478;50.982;7.032;2022-11-15T02:43:22;12.37;83.68
68177;DHT22;56478;50.982;7.032;2022-11-15T02:48:44;12.34;83.92
68177;DHT22;56478;50.982;7.032;2022-11-15T02:51:11;12.30;84.16
68177;DHT22;56478;50.982;7.032;2022-11-15T02:53:38;12.36;84.00
68177;DHT22;56478;50.982;7.032;2022-11-15T02:56:03;12.34;83.93
68177;DHT22;56478;50.982;7.032;2022-11-15T03:06:46;12.32;84.41
68177;DHT22;56478;50.982;7.032;2022-11-15T03:09:19;12.39;84.22
68177;DHT22;56478;50.982;7.032;2022-11-15T03:11:55;12.44;84.15
68177;DHT22;56478;50.982;7.032;2022-11-15T03:17:16;12.50;83.97
68177;DHT22;56478;50.982;7.032;2022-11-15T03:19:47;12.50;83.97
68177;DHT22;56478;50.982;7.032;2022-11-15T03:22:17;12.50;84.04
68177;DHT22;56478;50.982;7.032;2022-11-15T03:24:45;12.47;84.28
68177;DHT22;56478;50.982;7.032;2022-11-15T03:27:15;12.49;84.08
68177;DHT22;56478;50.982;7.032;2022-11-15T03:29:50;12.53;84.00
68177;DHT22;56478;50.982;7.032;2022-11-15T03:32:19;12.53;84.01
68177;DHT22;56478;50.982;7.032;2022-11-15T03:37:35;12.49;84.15
68177;DHT22;56478;50.982;7.032;2022-11-15T03:40:03;12.50;84.23
68177;DHT22;56478;50.982;7.032;2022-11-15T03:42:34;12.53;83.94
68177;DHT22;56478;50.982;7.032;2022-11-15T03:45:27;12.51;83.98
68177;DHT22;56478;50.982;7.032;2022-11-15T03:48:05;12.49;84.02
68177;DHT22;56478;50.982;7.032;2022-11-15T03:50:34;12.53;83.94
68177;DHT22;56478;50.982;7.032;2022-11-15T03:53:00;12.57;83.83
68177;DHT22;56478;50.982;7.032;2022-11-15T03:55:25;12.54;83.74
68177;DHT22;56478;50.982;7.032;2022-11-15T03:57:53;12.57;83.71
68177;DHT22;56478;50.982;7.032;2022-11-15T04:00:19;12.56;83.74
68177;DHT22;56478;50.982;7.032;2022-11-15T04:02:45;12.63;83.49
68177;DHT22;56478;50.982;7.032;2022-11-15T04:05:10;12.58;83.56
68177;DHT22;56478;50.982;7.032;2022-11-15T04:07:36;12.56;83.75
68177;DHT22;56478;50.982;7.032;2022-11-15T04:10:02;12.64;83.35
68177;DHT22;56478;50.982;7.032;2022-11-15T04:12:38;12.67;83.35
68177;DHT22;56478;50.982;7.032;2022-11-15T04:17:39;12.65;83.44
68177;DHT22;56478;50.982;7.032;2022-11-15T04:20:15;12.69;83.25
68177;DHT22;56478;50.982;7.032;2022-11-15T04:23:01;12.61;83.57
68177;DHT22;56478;50.982;7.032;2022-11-15T04:25:46;12.61;83.61
68177;DHT22;56478;50.982;7.032;2022-11-15T04:28:12;12.67;83.39
68177;DHT22;56478;50.982;7.032;2022-11-15T04:30:38;12.74;83.26
68177;DHT22;56478;50.982;7.032;2022-11-15T04:33:04;12.63;83.54
68177;DHT22;56478;50.982;7.032;2022-11-15T04:35:30;12.71;83.25
68177;DHT22;56478;50.982;7.032;2022-11-15T04:37:57;12.75;83.26
68177;DHT22;56478;50.982;7.032;2022-11-15T04:40:22;12.69;83.37
68177;DHT22;56478;50.982;7.032;2022-11-15T04:42:48;12.71;83.27
68177;DHT22;56478;50.982;7.032;2022-11-15T04:45:13;12.73;83.18
68177;DHT22;56478;50.982;7.032;2022-11-15T04:47:39;12.78;83.13
68177;DHT22;56478;50.982;7.032;2022-11-15T04:50:05;12.74;83.24
68177;DHT22;56478;50.982;7.032;2022-11-15T04:52:30;12.74;83.32
68177;DHT22;56478;50.982;7.032;2022-11-15T04:54:56;12.78;83.17
68177;DHT22;56478;50.982;7.032;2022-11-15T04:57:21;12.78;83.22
68177;DHT22;56478;50.982;7.032;2022-11-15T04:59:47;12.80;83.17
68177;DHT22;56478;50.982;7.032;2022-11-15T05:02:12;12.81;83.23
68177;DHT22;56478;50.982;7.032;2022-11-15T05:04:38;12.71;83.54
68177;DHT22;56478;50.982;7.032;2022-11-15T05:07:04;12.67;83.83
68177;DHT22;56478;50.982;7.032;2022-11-15T05:09:29;12.77;83.44
68177;DHT22;56478;50.982;7.032;2022-11-15T05:11:55;12.67;83.63
68177;DHT22;56478;50.982;7.032;2022-11-15T05:14:20;12.69;83.72
68177;DHT22;56478;50.982;7.032;2022-11-15T05:16:46;12.64;83.81
68177;DHT22;56478;50.982;7.032;2022-11-15T05:19:11;12.67;83.80
68177;DHT22;56478;50.982;7.032;2022-11-15T05:21:37;12.63;84.06
68177;DHT22;56478;50.982;7.032;2022-11-15T05:24:03;12.67;83.94
68177;DHT22;56478;50.982;7.032;2022-11-15T05:26:29;12.58;84.24
68177;DHT22;56478;50.982;7.032;2022-11-15T05:28:56;12.57;84.26
68177;DHT22;56478;50.982;7.032;2022-11-15T05:31:23;12.65;83.94
68177;DHT22;56478;50.982;7.032;2022-11-15T05:33:50;12.58;84.22
68177;DHT22;56478;50.982;7.032;2022-11-15T05:36:34;12.61;84.12
68177;DHT22;56478;50.982;7.032;2022-11-15T05:39:01;12.57;84.14
68177;DHT22;56478;50.982;7.032;2022-11-15T05:41:32;12.61;84.12
68177;DHT22;56478;50.982;7.032;2022-11-15T05:44:00;12.50;84.56
68177;DHT22;56478;50.982;7.032;2022-11-15T05:46:26;12.43;84.84
68177;DHT22;56478;50.982;7.032;2022-11-15T05:48:53;12.34;85.10
68177;DHT22;56478;50.982;7.032;2022-11-15T05:51:20;12.46;84.77
68177;DHT22;56478;50.982;7.032;2022-11-15T05:53:47;12.40;84.89
68177;DHT22;56478;50.982;7.032;2022-11-15T05:56:13;12.39;84.82
68177;DHT22;56478;50.982;7.032;2022-11-15T05:58:39;12.30;85.17
68177;DHT22;56478;50.982;7.032;2022-11-15T06:01:05;12.23;85.29
68177;DHT22;56478;50.982;7.032;2022-11-15T06:03:30;12.25;85.28
68177;DHT22;56478;50.982;7.032;2022-11-15T06:05:56;12.22;85.33
68177;DHT22;56478;50.982;7.032;2022-11-15T06:08:22;12.11;85.64
68177;DHT22;56478;50.982;7.032;2022-11-15T06:10:47;12.05;85.96
68177;DHT22;56478;50.982;7.032;2022-11-15T06:13:13;11.95;86.14
68177;DHT22;56478;50.982;7.032;2022-11-15T06:15:39;11.99;85.95
68177;DHT22;56478;50.982;7.032;2022-11-15T06:18:04;11.88;86.32
68177;DHT22;56478;50.982;7.032;2022-11-15T06:20:30;11.88;86.15
68177;DHT22;56478;50.982;7.032;2022-11-15T06:23:03;11.82;86.28
68177;DHT22;56478;50.982;7.032;2022-11-15T06:25:30;11.80;86.28
68177;DHT22;56478;50.982;7.032;2022-11-15T06:27:57;11.84;86.27
68177;DHT22;56478;50.982;7.032;2022-11-15T06:30:24;11.84;86.05
68177;DHT22;56478;50.982;7.032;2022-11-15T06:32:50;11.84;85.94
68177;DHT22;56478;50.982;7.032;2022-11-15T06:35:16;11.84;85.93
68177;DHT22;56478;50.982;7.032;2022-11-15T06:37:42;11.82;85.84
68177;DHT22;56478;50.982;7.032;2022-11-15T06:40:09;11.82;85.69
68177;DHT22;56478;50.982;7.032;2022-11-15T06:42:35;11.77;85.76
68177;DHT22;56478;50.982;7.032;2022-11-15T06:45:00;11.80;85.83
68177;DHT22;56478;50.982;7.032;2022-11-15T06:47:26;11.75;85.76
68177;DHT22;56478;50.982;7.032;2022-11-15T06:49:52;11.66;86.29
68177;DHT22;56478;50.982;7.032;2022-11-15T06:52:17;11.66;86.24
68177;DHT22;56478;50.982;7.032;2022-11-15T06:54:46;11.62;86.51
68177;DHT22;56478;50.982;7.032;2022-11-15T06:57:12;11.62;86.52
68177;DHT22;56478;50.982;7.032;2022-11-15T06:59:37;11.53;86.83
68177;DHT22;56478;50.982;7.032;2022-11-15T07:02:03;11.57;86.73
68177;DHT22;56478;50.982;7.032;2022-11-15T07:04:29;11.56;86.67
68177;DHT22;56478;50.982;7.032;2022-11-15T07:06:54;11.59;86.58
68177;DHT22;56478;50.982;7.032;2022-11-15T07:09:20;11.60;86.39
68177;DHT22;56478;50.982;7.032;2022-11-15T07:11:45;11.70;86.06
68177;DHT22;56478;50.982;7.032;2022-11-15T07:14:11;11.69;85.94
68177;DHT22;56478;50.982;7.032;2022-11-15T07:16:37;11.63;86.00
68177;DHT22;56478;50.982;7.032;2022-11-15T07:19:03;11.59;86.15
68177;DHT22;56478;50.982;7.032;2022-11-15T07:21:29;11.59;86.28
68177;DHT22;56478;50.982;7.032;2022-11-15T07:23:54;11.64;86.05
68177;DHT22;56478;50.982;7.032;2022-11-15T07:26:20;11.59;85.98
68177;DHT22;56478;50.982;7.032;2022-11-15T07:28:45;11.69;85.73
68177;DHT22;56478;50.982;7.032;2022-11-15T07:31:11;11.73;85.37
68177;DHT22;56478;50.982;7.032;2022-11-15T07:33:36;11.81;84.92
68177;DHT22;56478;50.982;7.032;2022-11-15T07:36:04;11.87;84.49
68177;DHT22;56478;50.982;7.032;2022-11-15T07:38:33;11.94;83.85
68177;DHT22;56478;50.982;7.032;2022-11-15T07:41:02;12.06;83.33
68177;DHT22;56478;50.982;7.032;2022-11-15T07:43:27;12.04;83.03
68177;DHT22;56478;50.982;7.032;2022-11-15T07:45:55;12.09;82.61
68177;DHT22;56478;50.982;7.032;2022-11-15T07:48:20;12.30;81.79
68177;DHT22;56478;50.982;7.032;2022-11-15T07:50:45;12.36;81.28
68177;DHT22;56478;50.982;7.032;2022-11-15T07:53:12;12.42;80.81
68177;DHT22;56478;50.982;7.032;2022-11-15T07:55:40;12.49;80.41
68177;DHT22;56478;50.982;7.032;2022-11-15T07:58:08;12.61;79.44
68177;DHT22;56478;50.982;7.032;2022-11-15T08:00:34;12.74;79.29
68177;DHT22;56478;50.982;7.032;2022-11-15T08:03:07;12.85;78.41
68177;DHT22;56478;50.982;7.032;2022-11-15T08:05:34;13.05;77.81
68177;DHT22;56478;50.982;7.032;2022-11-15T08:08:00;13.23;77.14
68177;DHT22;56478;50.982;7.032;2022-11-15T08:10:26;13.26;76.99
68177;DHT22;56478;50.982;7.032;2022-11-15T08:13:03;13.15;77.17
68177;DHT22;56478;50.982;7.032;2022-11-15T08:15:29;13.27;76.88
68177;DHT22;56478;50.982;7.032;2022-11-15T08:17:56;13.30;76.58
68177;DHT22;56478;50.982;7.032;2022-11-15T08:20:23;13.26;76.62
68177;DHT22;56478;50.982;7.032;2022-11-15T08:22:49;13.36;75.67
68177;DHT22;56478;50.982;7.032;2022-11-15T08:25:14;13.19;76.50
68177;DHT22;56478;50.982;7.032;2022-11-15T08:27:40;13.06;76.70
68177;DHT22;56478;50.982;7.032;2022-11-15T08:30:05;13.26;76.62
68177;DHT22;56478;50.982;7.032;2022-11-15T08:32:31;13.27;76.32
68177;DHT22;56478;50.982;7.032;2022-11-15T08:34:57;13.16;76.39
68177;DHT22;56478;50.982;7.032;2022-11-15T08:37:22;13.22;76.37
68177;DHT22;56478;50.982;7.032;2022-11-15T08:39:48;13.29;76.08
68177;DHT22;56478;50.982;7.032;2022-11-15T08:42:13;13.23;76.10
68177;DHT22;56478;50.982;7.032;2022-11-15T08:44:40;13.44;75.28
68177;DHT22;56478;50.982;7.032;2022-11-15T08:47:05;13.32;75.58
68177;DHT22;56478;50.982;7.032;2022-11-15T08:49:31;13.44;75.31
68177;DHT22;56478;50.982;7.032;2022-11-15T08:51:56;13.50;74.97
68177;DHT22;56478;50.982;7.032;2022-11-15T08:54:21;13.53;75.34
68177;DHT22;56478;50.982;7.032;2022-11-15T08:56:47;13.74;74.67
68177;DHT22;56478;50.982;7.032;2022-11-15T08:59:13;14.02;73.45
68177;DHT22;56478;50.982;7.032;2022-11-15T09:01:38;14.56;71.57
68177;DHT22;56478;50.982;7.032;2022-11-15T09:04:03;15.09;69.72
68177;DHT22;56478;50.982;7.032;2022-11-15T09:06:29;15.53;67.87
68177;DHT22;56478;50.982;7.032;2022-11-15T09:08:56;16.08;66.88
68177;DHT22;56478;50.982;7.032;2022-11-15T09:11:22;16.76;64.74
68177;DHT22;56478;50.982;7.032;2022-11-15T09:13:49;17.19;62.31
68177;DHT22;56478;50.982;7.032;2022-11-15T09:16:14;17.38;61.38
68177;DHT22;56478;50.982;7.032;2022-11-15T09:18:40;17.21;62.19
68177;DHT22;56478;50.982;7.032;2022-11-15T09:21:06;17.03;62.09
68177;DHT22;56478;50.982;7.032;2022-11-15T09:23:32;17.31;60.60
68177;DHT22;56478;50.982;7.032;2022-11-15T09:26:02;17.47;59.95
68177;DHT22;56478;50.982;7.032;2022-11-15T09:28:28;17.48;60.21
68177;DHT22;56478;50.982;7.032;2022-11-15T09:30:58;17.02;60.67
68177;DHT22;56478;50.982;7.032;2022-11-15T09:33:24;16.95;60.13
68177;DHT22;56478;50.982;7.032;2022-11-15T09:35:49;16.72;60.28
68177;DHT22;56478;50.982;7.032;2022-11-15T09:38:15;16.89;60.93
68177;DHT22;56478;50.982;7.032;2022-11-15T09:40:41;16.31;61.46
68177;DHT22;56478;50.982;7.032;2022-11-15T09:46:11;16.33;60.26
68177;DHT22;56478;50.982;7.032;2022-11-15T09:48:50;15.78;61.71
68177;DHT22;56478;50.982;7.032;2022-11-15T09:51:33;16.10;60.09
68177;DHT22;56478;50.982;7.032;2022-11-15T09:56:47;16.99;57.99
68177;DHT22;56478;50.982;7.032;2022-11-15T09:59:26;17.07;58.00
68177;DHT22;56478;50.982;7.032;2022-11-15T10:04:25;17.81;55.08
68177;DHT22;56478;50.982;7.032;2022-11-15T10:07:06;17.78;54.88
68177;DHT22;56478;50.982;7.032;2022-11-15T10:09:42;17.90;54.83
68177;DHT22;56478;50.982;7.032;2022-11-15T10:12:09;18.20;54.61
68177;DHT22;56478;50.982;7.032;2022-11-15T10:14:35;18.71;51.74
68177;DHT22;56478;50.982;7.032;2022-11-15T10:17:27;18.04;52.28
68177;DHT22;56478;50.982;7.032;2022-11-15T10:20:17;18.07;52.60
68177;DHT22;56478;50.982;7.032;2022-11-15T10:22:47;18.31;51.93
68177;DHT22;56478;50.982;7.032;2022-11-15T10:27:40;17.82;53.60
68177;DHT22;56478;50.982;7.032;2022-11-15T10:30:17;17.37;54.41
68177;DHT22;56478;50.982;7.032;2022-11-15T10:32:44;17.83;52.78
68177;DHT22;56478;50.982;7.032;2022-11-15T10:35:29;17.79;52.25
68177;DHT22;56478;50.982;7.032;2022-11-15T10:38:09;17.28;54.06
68177;DHT22;56478;50.982;7.032;2022-11-15T10:40:35;17.26;52.72
68177;DHT22;56478;50.982;7.032;2022-11-15T10:43:15;17.40;50.94
68177;DHT22;56478;50.982;7.032;2022-11-15T10:45:41;17.30;51.31
68177;DHT22;56478;50.982;7.032;2022-11-15T10:50:45;17.24;48.13
68177;DHT22;56478;50.982;7.032;2022-11-15T10:55:52;17.35;45.50
68177;DHT22;56478;50.982;7.032;2022-11-15T10:58:41;17.17;45.93
68177;DHT22;56478;50.982;7.032;2022-11-15T11:03:37;16.79;46.80
68177;DHT22;56478;50.982;7.032;2022-11-15T11:08:30;17.26;46.34
68177;DHT22;56478;50.982;7.032;2022-11-15T11:10:59;16.71;46.87
68177;DHT22;56478;50.982;7.032;2022-11-15T11:30:21;17.00;47.54
68177;DHT22;56478;50.982;7.032;2022-11-15T11:48:59;16.38;49.86
68177;DHT22;56478;50.982;7.032;2022-11-15T11:51:36;16.38;49.34
68177;DHT22;56478;50.982;7.032;2022-11-15T11:54:11;16.45;49.41
68177;DHT22;56478;50.982;7.032;2022-11-15T11:56:40;16.51;49.34
68177;DHT22;56478;50.982;7.032;2022-11-15T11:59:53;16.17;50.78
68177;DHT22;56478;50.982;7.032;2022-11-15T12:01:52;16.30;51.59
68177;DHT22;56478;50.982;7.032;2022-11-15T12:04:22;16.34;51.01
68177;DHT22;56478;50.982;7.032;2022-11-15T12:06:58;16.27;51.64
68177;DHT22;56478;50.982;7.032;2022-11-15T12:10:45;16.06;51.91
68177;DHT22;56478;50.982;7.032;2022-11-15T12:13:02;16.31;51.95
68177;DHT22;56478;50.982;7.032;2022-11-15T12:16:30;16.41;52.04
68177;DHT22;56478;50.982;7.032;2022-11-15T12:18:37;16.35;51.89
68177;DHT22;56478;50.982;7.032;2022-11-15T12:21:13;16.82;50.92
68177;DHT22;56478;50.982;7.032;2022-11-15T12:23:48;16.52;51.32
68177;DHT22;56478;50.982;7.032;2022-11-15T12:26:22;16.52;51.36
68177;DHT22;56478;50.982;7.032;2022-11-15T12:28:53;16.40;51.48
68177;DHT22;56478;50.982;7.032;2022-11-15T12:33:49;16.62;51.46
68177;DHT22;56478;50.982;7.032;2022-11-15T12:39:02;16.64;51.39
68177;DHT22;56478;50.982;7.032;2022-11-15T12:41:30;16.50;51.90
68177;DHT22;56478;50.982;7.032;2022-11-15T12:43:56;16.21;52.07
68177;DHT22;56478;50.982;7.032;2022-11-15T12:49:42;15.95;53.79
68177;DHT22;56478;50.982;7.032;2022-11-15T13:02:30;15.79;56.66
68177;DHT22;56478;50.982;7.032;2022-11-15T13:22:43;15.34;60.26
68177;DHT22;56478;50.982;7.032;2022-11-15T13:30:41;15.31;60.78
68177;DHT22;56478;50.982;7.032;2022-11-15T13:35:53;15.23;61.29
68177;DHT22;56478;50.982;7.032;2022-11-15T13:40:52;15.22;61.66
68177;DHT22;56478;50.982;7.032;2022-11-15T13:46:22;15.29;61.12
68177;DHT22;56478;50.982;7.032;2022-11-15T13:49:04;15.24;61.69
68177;DHT22;56478;50.982;7.032;2022-11-15T13:51:42;15.23;61.65
68177;DHT22;56478;50.982;7.032;2022-11-15T13:57:18;15.24;61.79
68177;DHT22;56478;50.982;7.032;2022-11-15T13:59:57;15.18;62.09
68177;DHT22;56478;50.982;7.032;2022-11-15T14:02:34;15.12;62.37
68177;DHT22;56478;50.982;7.032;2022-11-15T14:05:21;15.18;62.30
68177;DHT22;56478;50.982;7.032;2022-11-15T14:08:05;15.09;62.77
68177;DHT22;56478;50.982;7.032;2022-11-15T14:10:37;15.22;62.42
68177;DHT22;56478;50.982;7.032;2022-11-15T14:13:04;15.18;62.34
68177;DHT22;56478;50.982;7.032;2022-11-15T14:15:37;15.18;62.22
68177;DHT22;56478;50.982;7.032;2022-11-15T14:18:04;15.16;62.21
68177;DHT22;56478;50.982;7.032;2022-11-15T14:20:37;15.07;62.57
68177;DHT22;56478;50.982;7.032;2022-11-15T14:23:18;14.99;63.40
68177;DHT22;56478;50.982;7.032;2022-11-15T14:25:52;15.05;62.97
68177;DHT22;56478;50.982;7.032;2022-11-15T14:30:51;15.06;62.85
68177;DHT22;56478;50.982;7.032;2022-11-15T14:33:27;14.93;63.36
68177;DHT22;56478;50.982;7.032;2022-11-15T14:35:55;14.88;63.77
68177;DHT22;56478;50.982;7.032;2022-11-15T14:38:25;14.92;63.70
68177;DHT22;56478;50.982;7.032;2022-11-15T14:40:51;14.88;63.91
68177;DHT22;56478;50.982;7.032;2022-11-15T14:43:16;14.91;64.08
68177;DHT22;56478;50.982;7.032;2022-11-15T14:45:42;14.86;64.10
68177;DHT22;56478;50.982;7.032;2022-11-15T14:48:08;14.81;64.32
68177;DHT22;56478;50.982;7.032;2022-11-15T14:50:34;14.74;64.67
68177;DHT22;56478;50.982;7.032;2022-11-15T14:53:00;14.74;64.70
68177;DHT22;56478;50.982;7.032;2022-11-15T14:55:31;14.75;64.81
68177;DHT22;56478;50.982;7.032;2022-11-15T14:58:04;14.69;64.88
68177;DHT22;56478;50.982;7.032;2022-11-15T15:00:31;14.74;64.91
68177;DHT22;56478;50.982;7.032;2022-11-15T15:02:57;14.72;65.02
68177;DHT22;56478;50.982;7.032;2022-11-15T15:05:31;14.68;65.29
68177;DHT22;56478;50.982;7.032;2022-11-15T15:07:58;14.68;65.24
68177;DHT22;56478;50.982;7.032;2022-11-15T15:10:24;14.61;65.43
68177;DHT22;56478;50.982;7.032;2022-11-15T15:12:50;14.56;65.53
68177;DHT22;56478;50.982;7.032;2022-11-15T15:15:21;14.50;65.80
68177;DHT22;56478;50.982;7.032;2022-11-15T15:17:47;14.44;65.99
68177;DHT22;56478;50.982;7.032;2022-11-15T15:20:12;14.43;66.04
68177;DHT22;56478;50.982;7.032;2022-11-15T15:22:39;14.37;66.20
68177;DHT22;56478;50.982;7.032;2022-11-15T15:25:33;14.36;66.39
68177;DHT22;56478;50.982;7.032;2022-11-15T15:28:00;14.30;66.62
68177;DHT22;56478;50.982;7.032;2022-11-15T15:30:27;14.29;66.67
68177;DHT22;56478;50.982;7.032;2022-11-15T15:32:53;14.30;66.78
68177;DHT22;56478;50.982;7.032;2022-11-15T15:35:19;14.30;66.85
68177;DHT22;56478;50.982;7.032;2022-11-15T15:37:47;14.29;66.89
68177;DHT22;56478;50.982;7.032;2022-11-15T15:40:15;14.27;66.90
68177;DHT22;56478;50.982;7.032;2022-11-15T15:42:41;14.27;66.87
68177;DHT22;56478;50.982;7.032;2022-11-15T15:45:08;14.30;66.85
68177;DHT22;56478;50.982;7.032;2022-11-15T15:47:34;14.30;66.78
68177;DHT22;56478;50.982;7.032;2022-11-15T15:50:00;14.26;67.04
68177;DHT22;56478;50.982;7.032;2022-11-15T15:52:25;14.26;67.31
68177;DHT22;56478;50.982;7.032;2022-11-15T15:54:51;14.25;67.27
68177;DHT22;56478;50.982;7.032;2022-11-15T15:57:17;14.22;67.35
68177;DHT22;56478;50.982;7.032;2022-11-15T15:59:42;14.23;67.40
68177;DHT22;56478;50.982;7.032;2022-11-15T16:02:12;14.20;67.58
68177;DHT22;56478;50.982;7.032;2022-11-15T16:04:40;14.16;67.76
